Time;durP1;ratioP1;P1;durP2;ratioP2;P2;SDS_P1;SDS_P2;PMS_P1;PMS_P2;Temp;Humidity;BMP_temperature;BMP_pressure;BME280_temperature;BME280_humidity;BME280_pressure;Samples;Min_cycle;Max_cycle;Signal;HPM_P1;HPM_P2
2022/05/19 00:01:26;;;;;;;0.80;0.80;;;23.00;99.90;;;;;;5050266;28;20208;-63
2022/05/19 00:03:53;;;;;;;0.90;0.90;;;22.90;99.90;;;;;;5034931;28;20252;-62
2022/05/19 00:06:20;;;;;;;0.80;0.80;;;22.90;99.90;;;;;;5031596;28;20260;-63
2022/05/19 00:08:48;;;;;;;0.80;0.80;;;22.90;99.90;;;;;;5031813;28;20273;-63
2022/05/19 00:11:20;;;;;;;0.73;0.73;;;22.90;99.90;;;;;;5031374;28;20227;-62
2022/05/19 00:13:47;;;;;;;1.27;1.20;;;22.90;99.90;;;;;;5039853;28;20311;-62
2022/05/19 00:16:14;;;;;;;0.75;0.75;;;22.80;99.90;;;;;;5043303;28;20213;-63
2022/05/19 00:18:41;;;;;;;0.80;0.80;;;22.80;99.90;;;;;;5049474;28;20245;-62
2022/05/19 00:21:08;;;;;;;0.80;0.80;;;22.80;99.90;;;;;;5039801;28;20232;-63
2022/05/19 00:23:35;;;;;;;0.80;0.80;;;22.80;99.90;;;;;;5043813;28;20281;-62
2022/05/19 00:26:04;;;;;;;0.95;0.95;;;22.70;99.90;;;;;;5040543;28;20301;-62
2022/05/19 00:28:31;;;;;;;0.80;0.80;;;22.70;99.90;;;;;;5045992;28;20651;-63
2022/05/19 00:30:58;;;;;;;1.00;1.00;;;22.70;99.90;;;;;;5039573;28;20204;-62
2022/05/19 00:33:25;;;;;;;0.85;0.85;;;22.70;99.90;;;;;;5043420;28;20665;-63
2022/05/19 00:35:52;;;;;;;0.90;0.90;;;22.60;99.90;;;;;;5047341;28;20306;-62
2022/05/19 00:38:19;;;;;;;0.75;0.73;;;22.70;99.90;;;;;;5049137;28;20663;-63
2022/05/19 00:40:48;;;;;;;0.90;0.90;;;22.70;99.90;;;;;;5043369;28;20204;-62
2022/05/19 00:43:17;;;;;;;0.70;0.70;;;22.60;99.90;;;;;;5032523;28;20220;-63
2022/05/19 00:45:52;;;;;;;1.67;0.93;;;22.60;99.90;;;;;;5037854;28;20579;-66
2022/05/19 00:48:22;;;;;;;0.73;0.70;;;22.50;99.90;;;;;;5045048;28;20628;-63
2022/05/19 00:50:54;;;;;;;0.77;0.77;;;22.50;99.90;;;;;;5031443;28;20544;-63
2022/05/19 00:53:31;;;;;;;0.80;0.80;;;22.40;99.90;;;;;;5033713;28;20224;-64
2022/05/19 00:56:02;;;;;;;0.80;0.80;;;22.40;99.90;;;;;;5039848;28;20286;-62
2022/05/19 00:58:36;;;;;;;0.90;0.90;;;22.30;99.90;;;;;;5039554;28;20204;-62
2022/05/19 01:01:03;;;;;;;0.80;0.80;;;22.30;99.90;;;;;;5037270;28;20216;-63
2022/05/19 01:03:34;;;;;;;0.85;0.85;;;22.30;99.90;;;;;;5040749;28;20307;-62
2022/05/19 01:06:07;;;;;;;0.80;0.80;;;22.30;99.90;;;;;;5043972;28;20235;-62
2022/05/19 01:08:39;;;;;;;0.63;0.63;;;22.30;99.90;;;;;;5047566;28;20204;-65
2022/05/19 01:11:07;;;;;;;0.70;0.70;;;22.30;99.90;;;;;;5043509;28;20200;-64
2022/05/19 01:13:35;;;;;;;0.80;0.80;;;22.20;99.90;;;;;;5041886;28;20248;-63
2022/05/19 01:16:05;;;;;;;0.85;0.85;;;22.20;99.90;;;;;;5042981;28;20214;-64
2022/05/19 01:18:33;;;;;;;0.90;0.90;;;22.10;99.90;;;;;;5047275;28;20196;-64
2022/05/19 01:21:01;;;;;;;1.00;1.00;;;22.20;99.90;;;;;;5042122;28;20204;-64
2022/05/19 01:23:39;;;;;;;0.82;0.82;;;22.20;99.90;;;;;;5046409;28;20246;-64
2022/05/19 01:26:16;;;;;;;0.60;0.60;;;22.20;99.90;;;;;;5044876;28;20228;-64
2022/05/19 01:28:45;;;;;;;0.95;0.80;;;22.10;99.90;;;;;;5049362;28;20267;-64
2022/05/19 01:31:27;;;;;;;0.60;0.60;;;22.00;99.90;;;;;;5046740;28;20299;-63
2022/05/19 01:33:54;;;;;;;0.70;0.70;;;22.10;99.90;;;;;;5049849;28;20313;-64
2022/05/19 01:36:21;;;;;;;0.80;0.80;;;22.10;99.90;;;;;;5047125;28;20733;-64
2022/05/19 01:38:51;;;;;;;0.60;0.60;;;22.00;99.90;;;;;;5046238;28;20254;-64
2022/05/19 01:41:24;;;;;;;0.68;0.68;;;22.00;99.90;;;;;;5033489;28;20673;-64
2022/05/19 01:44:03;;;;;;;0.60;0.60;;;21.80;99.90;;;;;;5030288;28;20248;-64
2022/05/19 01:46:33;;;;;;;0.80;0.80;;;21.80;99.90;;;;;;5086652;22;20255;-69
2022/05/19 01:49:05;;;;;;;0.82;0.82;;;21.70;99.90;;;;;;5075604;28;20195;-70
2022/05/19 01:51:36;;;;;;;0.70;0.70;;;21.60;99.90;;;;;;5074797;28;20242;-71
2022/05/19 01:54:13;;;;;;;0.70;0.70;;;21.50;99.90;;;;;;5075496;28;20298;-69
2022/05/19 01:56:46;;;;;;;0.80;0.80;;;21.40;99.90;;;;;;5075166;28;20227;-70
2022/05/19 01:59:19;;;;;;;0.70;0.70;;;21.40;99.90;;;;;;5071282;28;20294;-69
2022/05/19 02:01:54;;;;;;;0.70;0.70;;;21.50;99.90;;;;;;5074731;28;20217;-70
2022/05/19 02:04:27;;;;;;;0.90;0.90;;;21.40;99.90;;;;;;5075544;28;20293;-70
2022/05/19 02:06:58;;;;;;;0.70;0.70;;;21.40;99.90;;;;;;5075223;28;20318;-69
2022/05/19 02:09:29;;;;;;;0.77;0.77;;;21.40;99.90;;;;;;5075569;28;20214;-70
2022/05/19 02:11:58;;;;;;;0.60;0.60;;;21.40;99.90;;;;;;5064059;28;20299;-70
2022/05/19 02:14:31;;;;;;;0.70;0.70;;;21.30;99.90;;;;;;5066866;28;20204;-69
2022/05/19 02:16:59;;;;;;;0.90;0.90;;;21.30;99.90;;;;;;5057840;28;20206;-69
2022/05/19 02:19:31;;;;;;;0.80;0.80;;;21.30;99.90;;;;;;5056553;28;20440;-70
2022/05/19 02:21:58;;;;;;;0.80;0.80;;;21.30;99.90;;;;;;5054160;28;20242;-69
2022/05/19 02:24:27;;;;;;;0.75;0.75;;;21.40;99.90;;;;;;5054700;28;20639;-69
2022/05/19 02:26:54;;;;;;;0.68;0.68;;;21.50;99.90;;;;;;5054850;28;20227;-69
2022/05/19 02:29:26;;;;;;;0.52;0.50;;;21.60;99.90;;;;;;5054969;28;20645;-68
2022/05/19 02:31:54;;;;;;;0.57;0.57;;;21.60;99.90;;;;;;5053941;28;20606;-69
2022/05/19 02:34:21;;;;;;;0.70;0.70;;;21.50;99.90;;;;;;5054887;28;20239;-69
2022/05/19 02:36:48;;;;;;;0.60;0.60;;;21.40;99.90;;;;;;5054388;28;20658;-69
2022/05/19 02:39:15;;;;;;;0.60;0.60;;;21.40;99.90;;;;;;5055115;28;20291;-69
2022/05/19 02:41:42;;;;;;;0.68;0.68;;;21.30;99.90;;;;;;5060759;28;20235;-70
2022/05/19 02:44:09;;;;;;;1.20;0.80;;;21.20;99.90;;;;;;5061440;28;20257;-70
2022/05/19 02:46:36;;;;;;;0.85;0.85;;;21.10;99.90;;;;;;5057123;28;20318;-70
2022/05/19 02:49:04;;;;;;;0.82;0.82;;;20.90;99.90;;;;;;5054957;28;20231;-69
2022/05/19 02:51:31;;;;;;;0.70;0.70;;;20.70;99.90;;;;;;5053825;28;20290;-70
2022/05/19 02:53:58;;;;;;;0.80;0.80;;;20.70;99.90;;;;;;5054458;28;20282;-69
2022/05/19 02:56:25;;;;;;;0.60;0.60;;;20.60;99.90;;;;;;5055293;28;20228;-70
2022/05/19 02:58:52;;;;;;;0.80;0.80;;;20.60;99.90;;;;;;5057778;28;20204;-70
2022/05/19 03:01:20;;;;;;;0.70;0.70;;;20.50;99.90;;;;;;5059345;28;20228;-70
2022/05/19 03:03:48;;;;;;;0.80;0.80;;;20.50;99.90;;;;;;5062839;28;20215;-70
2022/05/19 03:06:16;;;;;;;0.68;0.68;;;20.40;99.90;;;;;;5060512;28;20262;-70
2022/05/19 03:08:43;;;;;;;0.80;0.80;;;20.30;99.90;;;;;;5058285;28;20296;-70
2022/05/19 03:11:10;;;;;;;0.80;0.80;;;20.10;99.90;;;;;;5060033;28;20670;-70
2022/05/19 03:13:37;;;;;;;0.60;0.60;;;20.10;99.90;;;;;;5059515;28;20256;-69
2022/05/19 03:16:07;;;;;;;0.68;0.63;;;20.00;99.90;;;;;;5058898;28;20228;-70
2022/05/19 03:18:34;;;;;;;0.65;0.65;;;20.00;99.90;;;;;;5058839;28;20208;-70
2022/05/19 03:21:01;;;;;;;0.70;0.70;;;20.00;99.90;;;;;;5060070;28;20223;-71
2022/05/19 03:23:29;;;;;;;0.68;0.68;;;19.90;99.90;;;;;;5068117;28;20236;-70
2022/05/19 03:25:56;;;;;;;0.77;0.77;;;19.90;99.90;;;;;;5070070;28;20657;-69
2022/05/19 03:28:23;;;;;;;0.75;0.75;;;19.80;99.90;;;;;;5070200;28;20221;-69
2022/05/19 03:30:50;;;;;;;0.70;0.70;;;19.80;99.90;;;;;;5069608;28;20227;-70
2022/05/19 03:33:17;;;;;;;0.70;0.70;;;19.80;99.90;;;;;;5059597;28;20207;-69
2022/05/19 03:35:44;;;;;;;0.68;0.68;;;19.80;99.90;;;;;;5055591;28;20270;-69
2022/05/19 03:38:11;;;;;;;0.80;0.80;;;19.70;99.90;;;;;;5054362;28;20196;-70
2022/05/19 03:40:39;;;;;;;0.68;0.68;;;19.60;99.90;;;;;;5054775;28;20240;-69
2022/05/19 03:43:06;;;;;;;0.68;0.68;;;19.50;99.90;;;;;;5054432;28;20646;-69
2022/05/19 03:45:33;;;;;;;0.80;0.80;;;19.50;99.90;;;;;;5053755;28;20310;-69
2022/05/19 03:48:00;;;;;;;0.80;0.80;;;19.50;99.90;;;;;;5053606;28;20319;-70
2022/05/19 03:50:27;;;;;;;0.70;0.70;;;19.40;99.90;;;;;;5053668;28;20688;-69
2022/05/19 03:52:54;;;;;;;0.70;0.70;;;19.30;99.90;;;;;;5053235;28;20204;-69
2022/05/19 03:55:21;;;;;;;0.52;0.52;;;19.30;99.90;;;;;;5058521;28;20258;-69
2022/05/19 03:57:49;;;;;;;0.70;0.70;;;19.30;99.90;;;;;;5058871;28;20243;-70
2022/05/19 04:00:18;;;;;;;0.60;0.60;;;19.20;99.90;;;;;;5056462;28;20282;-69
2022/05/19 04:02:45;;;;;;;0.77;0.77;;;19.20;99.90;;;;;;5054538;28;20244;-70
2022/05/19 04:05:13;;;;;;;0.60;0.60;;;19.20;99.90;;;;;;5054245;28;20223;-69
2022/05/19 04:07:41;;;;;;;0.80;0.80;;;19.20;99.90;;;;;;5052888;28;20223;-70
2022/05/19 04:10:09;;;;;;;1.48;0.80;;;19.20;99.90;;;;;;5054088;28;20239;-69
2022/05/19 04:12:36;;;;;;;0.60;0.60;;;19.20;99.90;;;;;;5056560;28;20250;-69
2022/05/19 04:15:06;;;;;;;0.75;0.75;;;19.20;99.90;;;;;;5063272;28;20228;-70
2022/05/19 04:17:34;;;;;;;0.60;0.60;;;19.20;99.90;;;;;;5068739;28;20235;-69
2022/05/19 04:20:01;;;;;;;0.80;0.80;;;19.10;99.90;;;;;;5068331;28;20287;-70
2022/05/19 04:22:28;;;;;;;0.70;0.68;;;19.10;99.90;;;;;;5052342;28;20204;-69
2022/05/19 04:24:55;;;;;;;0.70;0.70;;;19.10;99.90;;;;;;5053460;28;20315;-70
2022/05/19 04:27:23;;;;;;;0.80;0.80;;;19.00;99.90;;;;;;5053083;28;20303;-70
2022/05/19 04:29:50;;;;;;;0.65;0.65;;;19.10;99.90;;;;;;5052309;28;20200;-70
2022/05/19 04:32:18;;;;;;;0.70;0.70;;;19.10;99.90;;;;;;5052758;28;20291;-70
2022/05/19 04:34:45;;;;;;;0.70;0.70;;;19.10;99.90;;;;;;5053035;28;20235;-69
2022/05/19 04:37:12;;;;;;;0.70;0.70;;;19.10;99.90;;;;;;5053132;28;20303;-70
2022/05/19 04:39:39;;;;;;;0.70;0.70;;;19.20;99.90;;;;;;5053645;28;20303;-70
2022/05/19 04:42:07;;;;;;;0.70;0.70;;;19.20;99.90;;;;;;5057756;28;20208;-70
2022/05/19 04:44:34;;;;;;;0.80;0.80;;;19.10;99.90;;;;;;5060615;28;20212;-70
2022/05/19 04:47:01;;;;;;;0.70;0.70;;;19.00;99.90;;;;;;5058431;28;20238;-69
2022/05/19 04:49:30;;;;;;;0.60;0.60;;;19.10;99.90;;;;;;5067348;28;20297;-70
2022/05/19 04:51:57;;;;;;;0.68;0.68;;;19.10;99.90;;;;;;5067283;28;20234;-70
2022/05/19 04:54:24;;;;;;;0.60;0.60;;;19.20;99.90;;;;;;5061019;28;20552;-70
2022/05/19 04:56:51;;;;;;;0.80;0.80;;;19.20;99.90;;;;;;5074578;28;20203;-71
2022/05/19 04:59:18;;;;;;;0.88;0.88;;;19.30;99.90;;;;;;5078478;28;20199;-70
2022/05/19 05:01:47;;;;;;;0.82;0.82;;;19.30;99.90;;;;;;5072255;28;20294;-70
2022/05/19 05:04:16;;;;;;;0.80;0.80;;;19.30;99.90;;;;;;5061564;28;20200;-71
2022/05/19 05:06:44;;;;;;;0.80;0.80;;;19.40;99.90;;;;;;5069496;28;20607;-69
2022/05/19 05:09:11;;;;;;;1.00;1.00;;;19.50;99.90;;;;;;5064121;28;20254;-69
2022/05/19 05:11:40;;;;;;;0.88;0.88;;;19.50;99.90;;;;;;5071994;28;20203;-69
2022/05/19 05:14:08;;;;;;;0.85;0.82;;;19.50;99.90;;;;;;5063705;28;20205;-69
2022/05/19 05:16:35;;;;;;;0.77;0.77;;;19.70;99.90;;;;;;5066504;28;20640;-68
2022/05/19 05:19:02;;;;;;;0.80;0.80;;;19.80;99.90;;;;;;5061569;28;20644;-68
2022/05/19 05:21:28;;;;;;;0.80;0.80;;;19.90;99.90;;;;;;5054277;28;20227;-68
2022/05/19 05:23:57;;;;;;;0.52;0.52;;;20.10;99.90;;;;;;5068165;28;20797;-68
2022/05/19 05:26:24;;;;;;;1.00;1.00;;;20.30;99.90;;;;;;5058434;28;20310;-71
2022/05/19 05:28:51;;;;;;;0.90;0.90;;;20.50;99.90;;;;;;5058967;28;20250;-71
2022/05/19 05:31:18;;;;;;;0.80;0.80;;;20.60;99.90;;;;;;5069836;28;20921;-70
2022/05/19 05:33:45;;;;;;;0.95;0.95;;;20.80;99.90;;;;;;5067412;28;20881;-71
2022/05/19 05:36:12;;;;;;;0.73;0.73;;;20.90;99.90;;;;;;5055717;28;20696;-69
2022/05/19 05:38:39;;;;;;;0.70;0.70;;;21.00;99.90;;;;;;5063368;28;20286;-70
2022/05/19 05:41:07;;;;;;;0.98;0.98;;;21.20;99.90;;;;;;5067929;28;20322;-70
2022/05/19 05:43:35;;;;;;;0.80;0.80;;;21.40;99.90;;;;;;5066488;28;20314;-70
2022/05/19 05:46:08;;;;;;;1.13;1.02;;;21.50;99.90;;;;;;5062733;28;20266;-70
2022/05/19 05:48:36;;;;;;;0.70;0.70;;;21.70;99.90;;;;;;5061010;28;20750;-69
2022/05/19 05:51:05;;;;;;;1.45;0.90;;;21.90;99.90;;;;;;5064900;28;20207;-72
2022/05/19 05:53:32;;;;;;;2.88;1.10;;;22.00;99.90;;;;;;5059306;28;20203;-69
2022/05/19 05:55:59;;;;;;;0.70;0.70;;;22.10;99.90;;;;;;5072643;28;20241;-68
2022/05/19 05:58:27;;;;;;;0.90;0.90;;;22.20;99.90;;;;;;5071327;28;20217;-71
2022/05/19 06:00:55;;;;;;;0.90;0.90;;;22.30;99.90;;;;;;5059828;28;20240;-71
2022/05/19 06:03:22;;;;;;;0.80;0.80;;;22.40;99.90;;;;;;5063387;28;20196;-70
2022/05/19 06:05:49;;;;;;;0.77;0.77;;;22.50;99.90;;;;;;5063761;28;20773;-68
2022/05/19 06:08:16;;;;;;;0.70;0.70;;;22.60;99.90;;;;;;5058627;28;20661;-68
2022/05/19 06:10:43;;;;;;;0.80;0.80;;;22.80;99.90;;;;;;5073974;28;20286;-68
2022/05/19 06:13:10;;;;;;;0.73;0.73;;;22.90;99.90;;;;;;5064669;28;20215;-71
2022/05/19 06:15:39;;;;;;;0.80;0.80;;;23.00;99.90;;;;;;5077261;28;20760;-69
2022/05/19 06:18:06;;;;;;;0.70;0.70;;;23.20;99.90;;;;;;5069534;28;20195;-70
2022/05/19 06:20:34;;;;;;;0.85;0.85;;;23.30;99.90;;;;;;5075388;28;20283;-70
2022/05/19 06:23:03;;;;;;;0.80;0.80;;;23.50;99.90;;;;;;5065408;28;20286;-71
2022/05/19 06:25:32;;;;;;;0.70;0.70;;;23.50;99.90;;;;;;5072093;28;20227;-70
2022/05/19 06:27:59;;;;;;;0.70;0.70;;;23.60;99.90;;;;;;5077246;28;20229;-68
2022/05/19 06:30:27;;;;;;;0.80;0.80;;;23.70;99.90;;;;;;5078507;28;20290;-70
2022/05/19 06:32:55;;;;;;;0.88;0.88;;;23.70;99.90;;;;;;5080289;28;20238;-70
2022/05/19 06:35:24;;;;;;;0.90;0.90;;;23.80;99.90;;;;;;5078701;28;20277;-69
2022/05/19 06:37:51;;;;;;;0.70;0.70;;;23.80;99.90;;;;;;5079758;28;20226;-70
2022/05/19 06:40:19;;;;;;;0.70;0.70;;;23.90;99.90;;;;;;5077474;28;20291;-69
2022/05/19 06:42:46;;;;;;;0.60;0.60;;;23.90;99.90;;;;;;5079948;28;20473;-70
2022/05/19 06:45:17;;;;;;;0.68;0.68;;;24.10;99.90;;;;;;5080412;28;20284;-69
2022/05/19 06:47:44;;;;;;;0.60;0.60;;;24.20;99.90;;;;;;5077061;28;20751;-68
2022/05/19 06:50:13;;;;;;;0.70;0.70;;;24.40;99.90;;;;;;5074587;28;20219;-70
2022/05/19 06:52:44;;;;;;;0.80;0.80;;;24.50;99.90;;;;;;5073859;28;20564;-69
2022/05/19 06:55:12;;;;;;;0.80;0.80;;;24.60;99.90;;;;;;5074511;28;20241;-68
2022/05/19 06:57:40;;;;;;;0.70;0.70;;;24.70;99.90;;;;;;5074623;28;20252;-69
2022/05/19 07:00:09;;;;;;;0.75;0.75;;;25.00;99.90;;;;;;5075695;28;20238;-70
2022/05/19 07:02:36;;;;;;;0.80;0.80;;;25.10;99.90;;;;;;5076166;28;20209;-70
2022/05/19 07:05:04;;;;;;;0.80;0.80;;;25.20;99.90;;;;;;5076046;28;20314;-70
2022/05/19 07:07:32;;;;;;;0.90;0.90;;;25.30;99.90;;;;;;5074645;28;20761;-68
2022/05/19 07:09:59;;;;;;;1.13;0.80;;;25.40;99.90;;;;;;5074953;28;20295;-68
2022/05/19 07:12:26;;;;;;;0.60;0.60;;;25.60;99.90;;;;;;5073624;28;20749;-70
2022/05/19 07:14:54;;;;;;;0.70;0.70;;;25.70;99.90;;;;;;5073922;28;20268;-70
2022/05/19 07:17:21;;;;;;;0.80;0.80;;;25.90;99.90;;;;;;5074271;28;20239;-69
2022/05/19 07:22:35;;;;;;;0.80;0.80;;;26.20;99.90;;;;;;5072606;28;20317;-70
2022/05/19 07:25:06;;;;;;;0.70;0.70;;;26.40;99.90;;;;;;5073944;28;20228;-70
2022/05/19 07:27:33;;;;;;;0.60;0.60;;;26.60;99.90;;;;;;5073687;28;20207;-70
2022/05/19 07:30:01;;;;;;;0.80;0.80;;;26.70;99.90;;;;;;5074640;28;20627;-70
2022/05/19 07:32:28;;;;;;;0.77;0.75;;;26.80;99.90;;;;;;5073210;28;20214;-70
2022/05/19 07:34:56;;;;;;;0.80;0.80;;;27.00;99.90;;;;;;5073893;28;20367;-69
2022/05/19 07:37:23;;;;;;;0.70;0.70;;;27.00;99.90;;;;;;5073686;28;20560;-70
2022/05/19 07:39:51;;;;;;;0.90;0.90;;;27.00;99.90;;;;;;5078960;28;20264;-69
2022/05/19 07:42:18;;;;;;;0.90;0.90;;;26.80;99.90;;;;;;5082939;28;20199;-70
2022/05/19 07:47:20;;;;;;;1.08;1.00;;;26.70;99.90;;;;;;5041801;28;20229;-63
2022/05/19 07:49:48;;;;;;;1.00;1.00;;;26.70;99.90;;;;;;5022126;28;20225;-63
2022/05/19 07:52:16;;;;;;;0.90;0.90;;;26.60;99.90;;;;;;5032180;28;20294;-63
2022/05/19 07:54:43;;;;;;;1.35;0.90;;;26.70;99.90;;;;;;5033493;28;20213;-63
2022/05/19 07:57:11;;;;;;;0.77;0.77;;;26.70;99.90;;;;;;5033159;28;20282;-64
2022/05/19 07:59:38;;;;;;;2.00;1.20;;;26.80;99.90;;;;;;5033151;28;20598;-64
2022/05/19 08:02:05;;;;;;;1.10;1.10;;;26.80;99.90;;;;;;5032572;28;20243;-63
2022/05/19 08:04:32;;;;;;;0.90;0.90;;;26.90;99.90;;;;;;5033983;28;20255;-64
2022/05/19 08:07:01;;;;;;;1.23;1.00;;;26.90;99.90;;;;;;5034288;28;20228;-64
2022/05/19 08:12:18;;;;;;;1.25;1.15;;;26.90;99.90;;;;;;5033428;28;20188;-64
2022/05/19 08:17:29;;;;;;;0.93;0.93;;;27.00;99.90;;;;;;5027638;28;20207;-64
2022/05/19 08:20:04;;;;;;;0.80;0.80;;;27.10;99.90;;;;;;5039071;28;20223;-64
2022/05/19 08:22:31;;;;;;;1.45;0.90;;;27.30;99.90;;;;;;5035081;28;20231;-64
2022/05/19 08:24:58;;;;;;;1.00;1.00;;;27.60;99.90;;;;;;5033120;28;20596;-63
2022/05/19 08:27:26;;;;;;;0.90;0.90;;;27.80;99.90;;;;;;5032628;28;20208;-64
2022/05/19 08:29:53;;;;;;;1.00;0.93;;;27.90;99.90;;;;;;5037249;28;20235;-64
2022/05/19 08:32:20;;;;;;;1.00;1.00;;;28.00;99.90;;;;;;5043231;28;20217;-64
2022/05/19 08:34:47;;;;;;;0.80;0.80;;;28.10;99.90;;;;;;5035922;28;20789;-64
2022/05/19 08:37:14;;;;;;;1.02;1.02;;;28.20;99.90;;;;;;5032910;28;20200;-63
2022/05/19 08:39:41;;;;;;;0.95;0.90;;;28.30;99.90;;;;;;5032747;28;20227;-64
2022/05/19 08:42:09;;;;;;;0.90;0.90;;;28.40;99.90;;;;;;5031825;28;20218;-63
2022/05/19 08:44:41;;;;;;;1.20;1.00;;;28.50;99.90;;;;;;5032299;28;20295;-64
2022/05/19 08:47:12;;;;;;;1.02;1.02;;;28.60;99.90;;;;;;5027184;28;20229;-64
2022/05/19 08:49:43;;;;;;;1.90;1.13;;;28.70;99.90;;;;;;5013772;28;20276;-63
2022/05/19 08:52:12;;;;;;;0.90;0.90;;;28.60;99.90;;;;;;5016161;28;20209;-63
2022/05/19 08:54:44;;;;;;;1.13;1.00;;;28.90;99.90;;;;;;5013774;28;20205;-62
2022/05/19 08:57:18;;;;;;;0.95;0.95;;;29.10;99.90;;;;;;5012581;28;20217;-64
2022/05/19 08:59:57;;;;;;;0.80;0.80;;;29.20;99.90;;;;;;5013485;28;20207;-64
2022/05/19 09:02:30;;;;;;;0.90;0.90;;;29.40;99.90;;;;;;5010523;28;21565;-64
2022/05/19 09:05:19;;;;;;;1.00;1.00;;;29.60;99.90;;;;;;5016158;28;20742;-63
2022/05/19 09:07:58;;;;;;;0.90;0.90;;;29.70;99.90;;;;;;5017613;28;20740;-63
2022/05/19 09:10:55;;;;;;;0.90;0.90;;;29.70;99.90;;;;;;4997721;28;20261;-64
2022/05/19 09:13:30;;;;;;;0.90;0.90;;;29.80;99.90;;;;;;4996332;28;20208;-63
2022/05/19 09:16:00;;;;;;;0.95;0.95;;;30.00;99.90;;;;;;5002138;28;20225;-63
2022/05/19 09:18:34;;;;;;;1.05;1.05;;;30.10;99.90;;;;;;5002441;28;20281;-63
2022/05/19 09:21:03;;;;;;;1.08;1.08;;;30.20;99.90;;;;;;5009341;28;20256;-63
2022/05/19 09:23:30;;;;;;;1.73;1.30;;;30.30;99.90;;;;;;5000316;28;20212;-63
2022/05/19 09:26:08;;;;;;;1.25;1.15;;;30.30;99.90;;;;;;5004461;28;20679;-63
2022/05/19 09:28:36;;;;;;;1.25;1.15;;;30.30;99.90;;;;;;5002502;28;20215;-64
2022/05/19 09:31:04;;;;;;;1.05;1.05;;;30.30;99.90;;;;;;4997631;28;20661;-63
2022/05/19 09:33:37;;;;;;;1.08;1.00;;;30.20;99.90;;;;;;4997827;28;20704;-63
2022/05/19 09:36:10;;;;;;;1.00;0.98;;;30.20;99.90;;;;;;5001938;28;20249;-63
2022/05/19 09:38:44;;;;;;;1.15;1.10;;;30.40;99.90;;;;;;5014717;28;20205;-63
2022/05/19 09:41:23;;;;;;;2.15;1.08;;;30.60;99.90;;;;;;5008947;28;20621;-63
2022/05/19 09:43:54;;;;;;;1.00;1.00;;;30.80;99.90;;;;;;5012778;28;20228;-64
2022/05/19 09:46:23;;;;;;;1.25;1.17;;;31.00;99.90;;;;;;5003973;28;20275;-64
2022/05/19 09:49:00;;;;;;;1.00;1.00;;;31.20;99.90;;;;;;5008110;28;20210;-64
2022/05/19 09:51:32;;;;;;;1.10;1.00;;;31.20;99.90;;;;;;5008501;28;20205;-64
2022/05/19 09:54:00;;;;;;;1.08;1.08;;;31.00;99.90;;;;;;5000990;28;20237;-64
2022/05/19 09:56:38;;;;;;;0.90;0.90;;;30.90;99.90;;;;;;5003974;28;20233;-64
2022/05/19 09:59:08;;;;;;;1.00;1.00;;;31.20;99.90;;;;;;5005547;28;20792;-64
2022/05/19 10:01:41;;;;;;;1.33;1.08;;;31.50;99.90;;;;;;5006366;28;20288;-64
2022/05/19 10:04:13;;;;;;;1.15;1.05;;;31.80;99.90;;;;;;5006467;28;20205;-64
2022/05/19 10:06:52;;;;;;;1.27;1.17;;;32.10;99.90;;;;;;5002015;28;20249;-64
2022/05/19 10:09:23;;;;;;;1.20;1.10;;;32.00;99.90;;;;;;5005361;28;20233;-64
2022/05/19 10:11:53;;;;;;;1.50;1.23;;;32.00;99.90;;;;;;5006461;28;20296;-64
2022/05/19 10:14:26;;;;;;;1.38;1.10;;;32.00;99.90;;;;;;5016650;28;20772;-64
2022/05/19 10:17:03;;;;;;;1.00;1.00;;;32.20;99.90;;;;;;5014562;28;20261;-64
2022/05/19 10:19:40;;;;;;;1.13;1.10;;;32.30;99.90;;;;;;5007496;28;20277;-64
2022/05/19 10:22:28;;;;;;;1.00;1.00;;;32.20;99.90;;;;;;5020093;28;20262;-64
2022/05/19 10:25:16;;;;;;;1.27;1.17;;;32.30;99.90;;;;;;5020465;28;20233;-64
2022/05/19 10:31:06;;;;;;;0.95;0.95;;;32.50;99.90;;;;;;5008170;28;20675;-64
2022/05/19 10:33:49;;;;;;;1.02;1.02;;;32.70;99.90;;;;;;5008217;28;20208;-63
2022/05/19 10:36:23;;;;;;;1.30;1.20;;;32.70;99.90;;;;;;5005152;28;20343;-62
2022/05/19 10:39:06;;;;;;;1.00;1.00;;;32.70;99.90;;;;;;5001649;28;20212;-63
2022/05/19 10:41:53;;;;;;;1.00;1.00;;;32.60;99.90;;;;;;5003562;28;20248;-65
2022/05/19 10:44:37;;;;;;;0.98;0.90;;;32.60;99.90;;;;;;5006314;28;20225;-63
2022/05/19 10:47:14;;;;;;;0.98;0.98;;;32.60;99.90;;;;;;5034152;28;20327;-63
2022/05/19 10:49:59;;;;;;;1.00;1.00;;;32.60;99.80;;;;;;5014175;28;20304;-63
2022/05/19 10:52:50;;;;;;;1.00;1.00;;;32.60;99.90;;;;;;5022930;28;20244;-63
2022/05/19 10:55:24;;;;;;;1.42;1.20;;;32.70;99.80;;;;;;5006677;28;20225;-63
2022/05/19 10:58:24;;;;;;;0.90;0.90;;;33.00;99.90;;;;;;5014768;28;20212;-63
2022/05/19 11:01:04;;;;;;;1.38;1.20;;;32.90;98.90;;;;;;5010219;28;20202;-64
2022/05/19 11:04:13;;;;;;;0.90;0.90;;;32.90;99.20;;;;;;5020241;28;20291;-63
2022/05/19 11:06:58;;;;;;;0.90;0.90;;;33.00;98.30;;;;;;5022999;28;20221;-63
2022/05/19 11:09:36;;;;;;;1.77;1.08;;;32.90;98.30;;;;;;5024734;28;20231;-63
2022/05/19 11:12:11;;;;;;;1.10;1.00;;;32.90;99.20;;;;;;5007355;28;20288;-63
2022/05/19 11:15:02;;;;;;;1.00;1.00;;;32.90;99.20;;;;;;5003309;28;20216;-63
2022/05/19 11:17:42;;;;;;;1.00;1.00;;;32.80;99.10;;;;;;5018275;28;20605;-64
2022/05/19 11:20:13;;;;;;;1.55;1.10;;;32.80;98.60;;;;;;5025491;28;20211;-64
2022/05/19 11:22:43;;;;;;;1.85;1.30;;;32.80;99.10;;;;;;4996924;28;20283;-64
2022/05/19 11:28:05;;;;;;;0.90;0.90;;;32.90;99.40;;;;;;5015293;28;20297;-62
2022/05/19 11:30:37;;;;;;;1.00;1.00;;;32.80;99.10;;;;;;5014056;28;20761;-63
2022/05/19 11:33:09;;;;;;;1.00;1.00;;;32.70;98.70;;;;;;5013918;28;20201;-63
2022/05/19 11:35:42;;;;;;;1.02;1.00;;;32.70;98.90;;;;;;5013363;28;20313;-64
2022/05/19 11:38:18;;;;;;;1.13;1.13;;;32.60;98.20;;;;;;5023417;28;20205;-65
2022/05/19 11:40:50;;;;;;;0.93;0.93;;;32.60;99.10;;;;;;5011715;28;20240;-64
2022/05/19 11:43:25;;;;;;;0.88;0.88;;;32.50;98.60;;;;;;5005375;28;20669;-65
2022/05/19 11:45:58;;;;;;;1.00;1.00;;;32.60;98.50;;;;;;4998901;28;20315;-64
2022/05/19 11:57:30;;;;;;;1.23;1.10;;;32.90;99.20;;;;;;5014206;28;20722;-64
2022/05/19 12:00:00;;;;;;;1.00;1.00;;;33.10;98.80;;;;;;5013639;28;20209;-64
2022/05/19 12:02:33;;;;;;;1.08;1.08;;;33.20;98.40;;;;;;5008610;28;20201;-64
2022/05/19 12:05:10;;;;;;;0.90;0.90;;;33.40;98.70;;;;;;5006426;28;20211;-64
2022/05/19 12:07:44;;;;;;;1.13;1.10;;;33.50;98.40;;;;;;5000823;28;20296;-65
2022/05/19 12:10:18;;;;;;;1.23;1.23;;;33.60;97.80;;;;;;5007809;28;20274;-64
2022/05/19 12:12:54;;;;;;;1.00;1.00;;;33.50;97.80;;;;;;5002727;28;20229;-64
2022/05/19 12:15:24;;;;;;;1.00;1.00;;;33.40;98.20;;;;;;5013116;28;20741;-64
2022/05/19 12:17:57;;;;;;;1.02;1.02;;;33.50;98.60;;;;;;5003669;28;20284;-63
2022/05/19 12:21:00;;;;;;;1.20;1.20;;;33.50;98.30;;;;;;5001624;28;20202;-64
2022/05/19 12:23:30;;;;;;;1.40;1.30;;;33.50;98.60;;;;;;4979837;28;20209;-64
2022/05/19 12:26:05;;;;;;;1.20;1.20;;;33.70;98.40;;;;;;5005023;28;20234;-65
2022/05/19 12:28:48;;;;;;;1.30;1.30;;;33.80;98.30;;;;;;5007063;28;20662;-63
2022/05/19 12:34:07;;;;;;;1.30;1.20;;;34.00;97.50;;;;;;5000854;28;20209;-65
2022/05/19 12:36:41;;;;;;;1.25;1.15;;;33.80;97.50;;;;;;5007085;28;20250;-64
2022/05/19 12:39:24;;;;;;;1.20;1.20;;;33.90;97.80;;;;;;5008912;28;20283;-64
2022/05/19 12:41:57;;;;;;;1.10;1.10;;;34.00;97.90;;;;;;5006248;28;20229;-65
2022/05/19 12:44:39;;;;;;;1.38;1.35;;;34.10;98.60;;;;;;5011746;28;20266;-65
2022/05/19 12:47:11;;;;;;;1.10;1.10;;;34.20;98.00;;;;;;5012213;28;20295;-65
2022/05/19 12:49:38;;;;;;;1.20;1.20;;;34.20;98.00;;;;;;5012681;28;20655;-64
2022/05/19 12:52:13;;;;;;;1.25;1.13;;;34.20;98.00;;;;;;5013741;28;20594;-65
2022/05/19 12:54:52;;;;;;;1.27;1.17;;;34.00;97.40;;;;;;5002338;28;20200;-65
2022/05/19 12:57:32;;;;;;;1.30;1.15;;;34.00;97.90;;;;;;5019826;28;20244;-64
2022/05/19 13:00:13;;;;;;;2.83;1.38;;;34.20;98.00;;;;;;5014949;28;20204;-64
2022/05/19 13:02:47;;;;;;;1.17;1.10;;;34.40;97.70;;;;;;5011752;28;20268;-64
2022/05/19 13:05:21;;;;;;;1.33;1.27;;;34.40;97.70;;;;;;5013237;28;20233;-64
2022/05/19 13:07:51;;;;;;;1.65;1.38;;;34.30;97.50;;;;;;5012901;28;20259;-64
2022/05/19 13:10:21;;;;;;;1.40;1.30;;;34.00;97.50;;;;;;5012478;28;20690;-65
2022/05/19 13:13:00;;;;;;;1.15;1.13;;;33.80;97.40;;;;;;5012640;28;20209;-64
2022/05/19 13:15:28;;;;;;;1.30;1.20;;;33.80;98.10;;;;;;5008092;28;20279;-65
2022/05/19 13:17:57;;;;;;;1.70;1.20;;;33.80;97.70;;;;;;5011515;28;20208;-66
2022/05/19 13:20:27;;;;;;;1.25;1.20;;;33.80;97.40;;;;;;5015033;28;20217;-64
2022/05/19 13:22:59;;;;;;;1.17;1.10;;;33.70;97.40;;;;;;5015187;28;20240;-65
2022/05/19 13:25:27;;;;;;;1.20;1.13;;;33.70;97.30;;;;;;5021930;28;20294;-64
2022/05/19 13:30:57;;;;;;;1.30;1.20;;;33.60;97.20;;;;;;5013091;28;20318;-64
2022/05/19 13:33:30;;;;;;;1.08;1.08;;;33.60;98.10;;;;;;5011005;28;20211;-64
2022/05/19 13:36:02;;;;;;;1.40;1.30;;;33.60;98.00;;;;;;5010030;28;20253;-64
2022/05/19 13:38:29;;;;;;;1.35;1.25;;;33.70;97.80;;;;;;5015342;28;20246;-64